1996 HANSELLA (1996093S16074)


On this page: IBTrACS data - Map and Plots - Positions - Intensities - Original source data

Summary

Start Apr 2
End Apr 11
Basin SI
LMI 95 kt
Sources jtwc_sh
reunion
neumann
In WMO? Yes
Previous storm 1996 MISSING (WP)
Previous in basin 1996 GUYLIANNE (SI)
Concurrent storms 1996 BETI (SP)
1996 ANN (WP)
1996 MISSING (WP)
1996 HANSELLA (SI)
1996 OLIVIA (SI)
1996 ITELLE (SI)
Next in basin 1996 OLIVIA (SI)
Next storm 1996 OLIVIA (SI)

top of page IBTrACS Data: File Access

top of page HURSAT Data: File Access

Image of storm

top of page Plots:

Map of storm track will not appear if FTP is down
Time series of cyclone Maximum Sustained Wind will not appear if FTP is down
Time series of cyclone Minimum Central Pressure will not appear if FTP is down

top of page Track Data:Position

jtwc_sh reunion neumann
Date Lat Lon Lat Lon Lat Lon
1996-04-02 00:00:00 -16.9 74.5 -15.1 73.8 -16.9 74.5
1996-04-02 06:00:00 -16.7 73.7 -15.6 73.6 -16.7 73.7
1996-04-02 12:00:00 -16.5 73.0 -16.0 73.2 -16.5 73.0
1996-04-02 18:00:00 -16.3 72.2 -16.1 72.3 -16.3 72.2
1996-04-03 00:00:00 -16.1 71.3 -16.1 71.2 -16.1 71.3
1996-04-03 06:00:00 -15.9 70.4 -16.1 70.2 -15.9 70.4
1996-04-03 12:00:00 -15.7 69.6 -15.9 69.1 -15.7 69.6
1996-04-03 18:00:00 -15.6 68.7 -15.7 67.9 -15.6 68.7
1996-04-04 00:00:00 -15.5 67.7 -15.6 66.7 -15.5 67.7
1996-04-04 06:00:00 -15.5 66.6 -15.9 65.9 -15.5 66.6
1996-04-04 12:00:00 -15.9 65.7 -16.3 65.3 -15.9 65.7
1996-04-04 18:00:00 -16.5 64.9 -16.9 64.6 -16.5 64.9
1996-04-05 00:00:00 -17.1 64.1 -17.5 64.0 -17.1 64.1
1996-04-05 06:00:00 -17.6 63.6 -17.8 63.7 -17.6 63.6
1996-04-05 12:00:00 -18.2 63.4 -18.2 63.5 -18.2 63.4
1996-04-05 18:00:00 -18.8 63.3 -18.9 63.3 -18.8 63.3
1996-04-06 00:00:00 -19.4 63.4 -19.5 63.3 -19.4 63.4
1996-04-06 06:00:00 -19.9 63.7 -20.0 63.6 -19.9 63.7
1996-04-06 12:00:00 -20.3 64.1 -20.5 64.2 -20.3 64.1
1996-04-06 18:00:00 -20.5 64.5 -20.6 64.5 -20.5 64.5
1996-04-07 00:00:00 -20.7 64.7 -20.6 64.5 -20.7 64.7
1996-04-07 06:00:00 -20.7 64.9 -20.5 64.9 -20.7 64.9
1996-04-07 12:00:00 -20.6 65.2 -20.6 65.2 -20.6 65.2
1996-04-07 18:00:00 -20.4 65.2 -20.7 65.3 -20.4 65.2
1996-04-08 00:00:00 -20.1 64.9 -20.8 65.1 -20.1 64.9
jtwc_sh reunion neumann
1996-04-08 06:00:00 -20.0 64.4 -20.8 64.6 -20.0 64.4
1996-04-08 12:00:00 -20.1 63.8 -20.7 63.8 -20.1 63.8
1996-04-08 18:00:00 -20.2 62.9 -20.6 62.8 -20.2 62.9
1996-04-09 00:00:00 -20.3 61.9 -20.7 61.6 -20.3 61.9
1996-04-09 06:00:00 -20.5 60.7 -20.7 60.6 -20.5 60.7
1996-04-09 12:00:00 -20.6 59.4 -20.8 59.5 -20.6 59.4
1996-04-09 18:00:00 -20.8 58.0 -20.8 57.9 -20.8 58.0
1996-04-10 00:00:00 -20.9 56.8 -20.8 56.4 -20.9 56.8
1996-04-10 06:00:00 -20.8 56.0 -20.5 55.5 -20.8 56.0
1996-04-10 12:00:00 -20.8 55.3 -20.5 54.8 -20.8 55.3
1996-04-10 18:00:00 -20.9 54.8 -20.9 54.8
1996-04-11 00:00:00 -21.2 54.3 -21.2 54.3
1996-04-11 06:00:00 -21.8 53.8

top of pageTrack Data:Intensity

jtwc_sh reunion neumann
Date Wind Pres Wind Pres Wind Pres
1996-04-02 00:00:00 20. 20. 1004. 20.
1996-04-02 06:00:00 25. 24. 1002. 25.
1996-04-02 12:00:00 25. 24. 1002. 25.
1996-04-02 18:00:00 30. 24. 1002. 30.
1996-04-03 00:00:00 35. 26. 1000. 35.
1996-04-03 06:00:00 35. 26. 1000. 35.
1996-04-03 12:00:00 35. 26. 1000. 35.
1996-04-03 18:00:00 35. 26. 1000. 35.
1996-04-04 00:00:00 40. 30. 995. 40.
1996-04-04 06:00:00 45. 30. 995. 45.
1996-04-04 12:00:00 50. 35. 992. 50.
1996-04-04 18:00:00 55. 40. 988. 55.
1996-04-05 00:00:00 60. 45. 984. 60.
1996-04-05 06:00:00 65. 45. 984. 65.
1996-04-05 12:00:00 70. 50. 978. 70.
1996-04-05 18:00:00 80. 55. 975. 80.
1996-04-06 00:00:00 90. 62. 965. 90.
1996-04-06 06:00:00 95. 65. 962. 95.
1996-04-06 12:00:00 95. 65. 962. 95.
1996-04-06 18:00:00 95. 65. 962. 95.
1996-04-07 00:00:00 95. 65. 962. 95.
1996-04-07 06:00:00 95. 65. 962. 95.
1996-04-07 12:00:00 95. 65. 962. 95.
1996-04-07 18:00:00 95. 60. 968. 95.
1996-04-08 00:00:00 90. 55. 975. 90.
jtwc_sh reunion neumann
1996-04-08 06:00:00 80. 50. 978. 80.
1996-04-08 12:00:00 70. 45. 984. 70.
1996-04-08 18:00:00 60. 40. 988. 60.
1996-04-09 00:00:00 55. 32. 994. 55.
1996-04-09 06:00:00 50. 25. 998. 50.
1996-04-09 12:00:00 40. 25. 998. 40.
1996-04-09 18:00:00 35. 24. 1000. 35.
1996-04-10 00:00:00 30. 24. 1002. 30.
1996-04-10 06:00:00 25. 24. 1004. 25.
1996-04-10 12:00:00 25. 20. 1006. 25.
1996-04-10 18:00:00 25. 25.
1996-04-11 00:00:00 25. 25.
1996-04-11 06:00:00 25.

top of page Links to source data

Source Source file Format
jtwc_sh bsh241996.txt ATCF
reunion WMO-Best-Tracks.txt:Line=17459:hansella WMO (old format)
neumann tracks.sh:Storm=1060:HANSELLA:BSH241996:JTWC HURDAT